sensor_id;sensor_type;location;lat;lon;timestamp;pressure;altitude;pressure_sealevel;temperature;humidity
18755;BME280;35061;47.664;9.166;2023-04-05T00:01:04;101991.15;;;2.71;48.45
18755;BME280;35061;47.664;9.166;2023-04-05T00:03:34;101986.67;;;2.74;48.52
18755;BME280;35061;47.664;9.166;2023-04-05T00:06:02;101988.73;;;2.73;48.83
18755;BME280;35061;47.664;9.166;2023-04-05T00:08:32;101993.93;;;2.78;48.88
18755;BME280;35061;47.664;9.166;2023-04-05T00:11:00;101991.09;;;2.82;49.11
18755;BME280;35061;47.664;9.166;2023-04-05T00:13:28;101982.22;;;2.84;49.04
18755;BME280;35061;47.664;9.166;2023-04-05T00:15:57;101983.79;;;2.88;49.32
18755;BME280;35061;47.664;9.166;2023-04-05T00:18:27;101987.00;;;2.94;49.55
18755;BME280;35061;47.664;9.166;2023-04-05T00:21:00;101978.53;;;2.98;49.12
18755;BME280;35061;47.664;9.166;2023-04-05T00:23:28;101977.28;;;2.99;48.79
18755;BME280;35061;47.664;9.166;2023-04-05T00:26:04;101971.63;;;2.99;48.72
18755;BME280;35061;47.664;9.166;2023-04-05T00:28:33;101974.84;;;3.04;49.12
18755;BME280;35061;47.664;9.166;2023-04-05T00:31:02;101966.36;;;3.01;48.92
18755;BME280;35061;47.664;9.166;2023-04-05T00:33:30;101963.91;;;3.03;49.04
18755;BME280;35061;47.664;9.166;2023-04-05T00:36:14;101963.13;;;2.99;48.88
18755;BME280;35061;47.664;9.166;2023-04-05T00:38:43;101965.58;;;2.93;48.87
18755;BME280;35061;47.664;9.166;2023-04-05T00:41:12;101961.55;;;2.87;48.79
18755;BME280;35061;47.664;9.166;2023-04-05T00:43:40;101957.96;;;2.79;48.79
18755;BME280;35061;47.664;9.166;2023-04-05T00:46:08;101953.12;;;2.76;48.85
18755;BME280;35061;47.664;9.166;2023-04-05T00:48:37;101953.94;;;2.73;48.90
18755;BME280;35061;47.664;9.166;2023-04-05T00:51:05;101946.28;;;2.70;48.87
18755;BME280;35061;47.664;9.166;2023-04-05T00:53:39;101947.92;;;2.67;48.87
18755;BME280;35061;47.664;9.166;2023-04-05T00:56:08;101946.71;;;2.64;48.76
18755;BME280;35061;47.664;9.166;2023-04-05T00:58:36;101947.13;;;2.63;48.69
18755;BME280;35061;47.664;9.166;2023-04-05T01:01:16;101941.87;;;2.61;48.70
18755;BME280;35061;47.664;9.166;2023-04-05T01:03:51;101937.42;;;2.60;48.73
18755;BME280;35061;47.664;9.166;2023-04-05T01:09:52;101924.90;;;2.58;48.63
18755;BME280;35061;47.664;9.166;2023-04-05T01:12:25;101932.23;;;2.55;48.67
18755;BME280;35061;47.664;9.166;2023-04-05T01:14:54;101917.67;;;2.49;48.69
18755;BME280;35061;47.664;9.166;2023-04-05T01:17:25;101925.36;;;2.49;48.69
18755;BME280;35061;47.664;9.166;2023-04-05T01:19:58;101921.34;;;2.46;48.78
18755;BME280;35061;47.664;9.166;2023-04-05T01:22:59;101918.91;;;2.45;49.08
18755;BME280;35061;47.664;9.166;2023-04-05T01:36:26;101899.95;;;2.38;49.16
18755;BME280;35061;47.664;9.166;2023-04-05T01:38:58;101898.31;;;2.41;49.43
18755;BME280;35061;47.664;9.166;2023-04-05T01:41:29;101907.99;;;2.43;49.41
18755;BME280;35061;47.664;9.166;2023-04-05T01:43:58;101903.12;;;2.47;49.48
18755;BME280;35061;47.664;9.166;2023-04-05T01:46:26;101895.86;;;2.54;49.62
18755;BME280;35061;47.664;9.166;2023-04-05T01:48:54;101897.43;;;2.58;49.73
18755;BME280;35061;47.664;9.166;2023-04-05T01:51:22;101896.19;;;2.67;49.60
18755;BME280;35061;47.664;9.166;2023-04-05T01:53:50;101898.22;;;2.62;49.59
18755;BME280;35061;47.664;9.166;2023-04-05T01:56:18;101897.82;;;2.68;49.90
18755;BME280;35061;47.664;9.166;2023-04-05T01:58:46;101892.52;;;2.70;50.12
18755;BME280;35061;47.664;9.166;2023-04-05T02:01:14;101891.77;;;2.62;50.29
18755;BME280;35061;47.664;9.166;2023-04-05T02:03:42;101891.35;;;2.60;50.86
18755;BME280;35061;47.664;9.166;2023-04-05T02:06:10;101895.80;;;2.64;51.22
18755;BME280;35061;47.664;9.166;2023-04-05T02:08:38;101890.59;;;2.56;51.89
18755;BME280;35061;47.664;9.166;2023-04-05T02:11:06;101886.15;;;2.47;51.62
18755;BME280;35061;47.664;9.166;2023-04-05T02:13:34;101887.75;;;2.52;51.88
18755;BME280;35061;47.664;9.166;2023-04-05T02:16:02;101883.30;;;2.58;51.98
18755;BME280;35061;47.664;9.166;2023-04-05T02:18:30;101882.91;;;2.53;51.79
18755;BME280;35061;47.664;9.166;2023-04-05T02:21:05;101873.98;;;2.58;51.59
18755;BME280;35061;47.664;9.166;2023-04-05T02:23:36;101875.59;;;2.62;51.66
18755;BME280;35061;47.664;9.166;2023-04-05T02:26:05;101876.41;;;2.67;51.47
18755;BME280;35061;47.664;9.166;2023-04-05T02:28:33;101875.20;;;2.64;51.32
18755;BME280;35061;47.664;9.166;2023-04-05T02:31:01;101873.20;;;2.61;51.17
18755;BME280;35061;47.664;9.166;2023-04-05T02:33:29;101865.52;;;2.58;50.99
18755;BME280;35061;47.664;9.166;2023-04-05T02:35:57;101872.38;;;2.57;50.80
18755;BME280;35061;47.664;9.166;2023-04-05T02:38:25;101864.73;;;2.57;50.78
18755;BME280;35061;47.664;9.166;2023-04-05T02:40:53;101861.46;;;2.59;50.50
18755;BME280;35061;47.664;9.166;2023-04-05T02:43:22;101863.06;;;2.60;50.98
18755;BME280;35061;47.664;9.166;2023-04-05T02:45:50;101866.34;;;2.62;51.28
18755;BME280;35061;47.664;9.166;2023-04-05T02:48:18;101862.67;;;2.61;50.95
18755;BME280;35061;47.664;9.166;2023-04-05T02:50:50;101867.55;;;2.61;51.04
18755;BME280;35061;47.664;9.166;2023-04-05T02:53:18;101853.81;;;2.56;50.72
18755;BME280;35061;47.664;9.166;2023-04-05T02:55:54;101865.13;;;2.56;50.84
18755;BME280;35061;47.664;9.166;2023-04-05T02:58:23;101855.45;;;2.53;50.70
18755;BME280;35061;47.664;9.166;2023-04-05T03:00:51;101857.08;;;2.50;50.85
18755;BME280;35061;47.664;9.166;2023-04-05T03:03:22;101852.24;;;2.47;50.81
18755;BME280;35061;47.664;9.166;2023-04-05T03:05:57;101858.71;;;2.48;50.84
18755;BME280;35061;47.664;9.166;2023-04-05T03:08:27;101847.40;;;2.48;50.79
18755;BME280;35061;47.664;9.166;2023-04-05T03:10:55;101846.59;;;2.47;50.71
18755;BME280;35061;47.664;9.166;2023-04-05T03:13:23;101844.98;;;2.46;50.67
18755;BME280;35061;47.664;9.166;2023-04-05T03:15:53;101834.48;;;2.43;50.86
18755;BME280;35061;47.664;9.166;2023-04-05T03:18:21;101840.14;;;2.47;50.85
18755;BME280;35061;47.664;9.166;2023-04-05T03:20:52;101833.27;;;2.41;51.32
18755;BME280;35061;47.664;9.166;2023-04-05T03:23:30;101835.34;;;2.40;51.10
18755;BME280;35061;47.664;9.166;2023-04-05T03:26:02;101828.04;;;2.39;51.45
18755;BME280;35061;47.664;9.166;2023-04-05T03:28:30;101832.12;;;2.34;51.30
18755;BME280;35061;47.664;9.166;2023-04-05T03:31:00;101829.71;;;2.29;51.29
18755;BME280;35061;47.664;9.166;2023-04-05T03:33:28;101834.13;;;2.30;51.77
18755;BME280;35061;47.664;9.166;2023-04-05T03:35:56;101828.07;;;2.32;52.18
18755;BME280;35061;47.664;9.166;2023-04-05T03:38:24;101832.52;;;2.29;52.37
18755;BME280;35061;47.664;9.166;2023-04-05T03:40:55;101837.03;;;2.19;53.27
18755;BME280;35061;47.664;9.166;2023-04-05T03:43:22;101829.71;;;2.22;53.37
18755;BME280;35061;47.664;9.166;2023-04-05T03:45:51;101825.72;;;2.19;53.37
18755;BME280;35061;47.664;9.166;2023-04-05T03:48:19;101826.57;;;2.13;53.22
18755;BME280;35061;47.664;9.166;2023-04-05T03:50:48;101826.60;;;1.94;53.80
18755;BME280;35061;47.664;9.166;2023-04-05T03:53:16;101828.66;;;1.79;53.69
18755;BME280;35061;47.664;9.166;2023-04-05T03:55:44;101828.30;;;1.70;53.68
18755;BME280;35061;47.664;9.166;2023-04-05T03:58:16;101824.67;;;1.62;53.98
18755;BME280;35061;47.664;9.166;2023-04-05T04:00:44;101821.05;;;1.55;53.82
18755;BME280;35061;47.664;9.166;2023-04-05T04:03:12;101826.73;;;1.44;54.06
18755;BME280;35061;47.664;9.166;2023-04-05T04:05:40;101818.66;;;1.31;54.32
18755;BME280;35061;47.664;9.166;2023-04-05T04:08:09;101833.17;;;1.22;54.36
18755;BME280;35061;47.664;9.166;2023-04-05T04:10:37;101815.45;;;1.18;54.45
18755;BME280;35061;47.664;9.166;2023-04-05T04:13:05;101824.28;;;1.06;54.95
18755;BME280;35061;47.664;9.166;2023-04-05T04:15:33;101825.52;;;0.97;55.71
18755;BME280;35061;47.664;9.166;2023-04-05T04:18:01;101825.91;;;0.92;55.34
18755;BME280;35061;47.664;9.166;2023-04-05T04:20:29;101825.88;;;0.89;55.49
18755;BME280;35061;47.664;9.166;2023-04-05T04:22:57;101829.12;;;0.87;56.38
18755;BME280;35061;47.664;9.166;2023-04-05T04:25:25;101825.49;;;0.76;56.45
18755;BME280;35061;47.664;9.166;2023-04-05T04:27:57;101824.25;;;0.69;56.99
18755;BME280;35061;47.664;9.166;2023-04-05T04:30:25;101832.29;;;0.60;57.58
18755;BME280;35061;47.664;9.166;2023-04-05T04:32:53;101821.01;;;0.60;57.25
18755;BME280;35061;47.664;9.166;2023-04-05T04:35:26;101824.64;;;0.61;57.03
18755;BME280;35061;47.664;9.166;2023-04-05T04:37:56;101829.87;;;0.66;57.39
18755;BME280;35061;47.664;9.166;2023-04-05T04:40:32;101829.09;;;0.73;57.20
18755;BME280;35061;47.664;9.166;2023-04-05T04:43:07;101822.68;;;0.76;57.67
18755;BME280;35061;47.664;9.166;2023-04-05T04:45:46;101830.73;;;0.85;57.67
18755;BME280;35061;47.664;9.166;2023-04-05T04:48:15;101822.68;;;0.90;58.13
18755;BME280;35061;47.664;9.166;2023-04-05T04:50:44;101821.47;;;0.95;57.78
18755;BME280;35061;47.664;9.166;2023-04-05T04:53:12;101818.66;;;0.91;57.46
18755;BME280;35061;47.664;9.166;2023-04-05T04:55:44;101819.05;;;0.86;57.40
18755;BME280;35061;47.664;9.166;2023-04-05T04:58:12;101823.46;;;0.76;57.26
18755;BME280;35061;47.664;9.166;2023-04-05T05:00:41;101821.44;;;0.73;57.43
18755;BME280;35061;47.664;9.166;2023-04-05T05:03:11;101832.36;;;0.75;57.60
18755;BME280;35061;47.664;9.166;2023-04-05T05:05:48;101820.23;;;0.71;57.62
18755;BME280;35061;47.664;9.166;2023-04-05T05:08:16;101824.67;;;0.79;58.16
18755;BME280;35061;47.664;9.166;2023-04-05T05:10:50;101836.38;;;0.88;57.95
18755;BME280;35061;47.664;9.166;2023-04-05T05:13:21;101832.75;;;0.95;57.90
18755;BME280;35061;47.664;9.166;2023-04-05T05:15:49;101837.20;;;0.92;57.80
18755;BME280;35061;47.664;9.166;2023-04-05T05:18:17;101832.36;;;0.93;57.79
18755;BME280;35061;47.664;9.166;2023-04-05T05:20:49;101837.20;;;0.92;57.98
18755;BME280;35061;47.664;9.166;2023-04-05T05:23:17;101832.75;;;0.95;58.50
18755;BME280;35061;47.664;9.166;2023-04-05T05:25:45;101835.56;;;0.91;57.88
18755;BME280;35061;47.664;9.166;2023-04-05T05:28:13;101831.97;;;0.87;57.99
18755;BME280;35061;47.664;9.166;2023-04-05T05:30:41;101830.76;;;0.92;57.71
18755;BME280;35061;47.664;9.166;2023-04-05T05:33:09;101831.97;;;0.98;58.22
18755;BME280;35061;47.664;9.166;2023-04-05T05:35:37;101838.84;;;1.04;58.13
18755;BME280;35061;47.664;9.166;2023-04-05T05:38:05;101842.04;;;1.10;58.01
18755;BME280;35061;47.664;9.166;2023-04-05T05:40:37;101846.06;;;1.16;58.03
18755;BME280;35061;47.664;9.166;2023-04-05T05:43:05;101848.48;;;1.14;57.91
18755;BME280;35061;47.664;9.166;2023-04-05T05:45:33;101845.66;;;1.18;58.10
18755;BME280;35061;47.664;9.166;2023-04-05T05:48:01;101841.65;;;1.08;57.64
18755;BME280;35061;47.664;9.166;2023-04-05T05:50:30;101842.85;;;1.00;57.71
18755;BME280;35061;47.664;9.166;2023-04-05T05:52:59;101844.85;;;0.95;57.89
18755;BME280;35061;47.664;9.166;2023-04-05T05:55:27;101842.82;;;0.92;57.68
18755;BME280;35061;47.664;9.166;2023-04-05T05:57:55;101848.88;;;0.91;57.72
18755;BME280;35061;47.664;9.166;2023-04-05T06:00:23;101844.42;;;0.90;58.04
18755;BME280;35061;47.664;9.166;2023-04-05T06:02:51;101849.27;;;0.86;57.63
18755;BME280;35061;47.664;9.166;2023-04-05T06:05:20;101843.25;;;0.87;57.69
18755;BME280;35061;47.664;9.166;2023-04-05T06:07:48;101844.42;;;0.90;57.46
18755;BME280;35061;47.664;9.166;2023-04-05T06:10:16;101850.51;;;0.92;57.46
18755;BME280;35061;47.664;9.166;2023-04-05T06:12:44;101852.53;;;0.99;57.43
18755;BME280;35061;47.664;9.166;2023-04-05T06:15:12;101852.50;;;1.06;57.37
18755;BME280;35061;47.664;9.166;2023-04-05T06:17:40;101860.58;;;1.11;57.28
18755;BME280;35061;47.664;9.166;2023-04-05T06:20:09;101849.30;;;1.15;57.37
18755;BME280;35061;47.664;9.166;2023-04-05T06:22:40;101855.74;;;1.22;57.47
18755;BME280;35061;47.664;9.166;2023-04-05T06:25:08;101854.17;;;1.29;57.03
18755;BME280;35061;47.664;9.166;2023-04-05T06:27:36;101854.13;;;1.39;56.69
18755;BME280;35061;47.664;9.166;2023-04-05T06:30:05;101854.95;;;1.44;56.29
18755;BME280;35061;47.664;9.166;2023-04-05T06:32:33;101855.74;;;1.48;56.16
18755;BME280;35061;47.664;9.166;2023-04-05T06:35:01;101848.05;;;1.52;56.03
18755;BME280;35061;47.664;9.166;2023-04-05T06:37:32;101862.18;;;1.59;55.99
18755;BME280;35061;47.664;9.166;2023-04-05T06:40:00;101859.76;;;1.65;55.75
18755;BME280;35061;47.664;9.166;2023-04-05T06:42:28;101865.41;;;1.69;55.25
18755;BME280;35061;47.664;9.166;2023-04-05T06:44:56;101857.70;;;1.87;56.71
18755;BME280;35061;47.664;9.166;2023-04-05T06:47:24;101861.63;;;2.22;55.89
18755;BME280;35061;47.664;9.166;2023-04-05T06:49:52;101857.57;;;2.27;53.82
18755;BME280;35061;47.664;9.166;2023-04-05T06:52:20;101859.56;;;2.37;54.64
18755;BME280;35061;47.664;9.166;2023-04-05T06:54:48;101862.38;;;2.45;53.51
18755;BME280;35061;47.664;9.166;2023-04-05T06:57:17;101854.66;;;2.53;53.09
18755;BME280;35061;47.664;9.166;2023-04-05T06:59:45;101847.76;;;2.57;52.55
18755;BME280;35061;47.664;9.166;2023-04-05T07:02:13;101844.49;;;2.62;52.31
18755;BME280;35061;47.664;9.166;2023-04-05T07:04:41;101855.38;;;2.68;52.06
18755;BME280;35061;47.664;9.166;2023-04-05T07:07:09;101843.18;;;2.78;51.80
18755;BME280;35061;47.664;9.166;2023-04-05T07:09:37;101854.07;;;2.83;51.63
18755;BME280;35061;47.664;9.166;2023-04-05T07:12:07;101848.84;;;2.82;51.38
18755;BME280;35061;47.664;9.166;2023-04-05T07:14:36;101853.65;;;2.85;50.89
18755;BME280;35061;47.664;9.166;2023-04-05T07:17:05;101844.72;;;2.86;50.88
18755;BME280;35061;47.664;9.166;2023-04-05T07:19:34;101849.95;;;2.95;51.03
18755;BME280;35061;47.664;9.166;2023-04-05T07:22:02;101851.55;;;2.96;50.83
18755;BME280;35061;47.664;9.166;2023-04-05T07:24:30;101857.21;;;3.00;50.61
18755;BME280;35061;47.664;9.166;2023-04-05T07:26:58;101857.57;;;3.02;50.52
18755;BME280;35061;47.664;9.166;2023-04-05T07:29:26;101858.35;;;3.06;49.87
18755;BME280;35061;47.664;9.166;2023-04-05T07:31:54;101859.17;;;3.06;49.99
18755;BME280;35061;47.664;9.166;2023-04-05T07:34:22;101854.70;;;3.09;49.97
18755;BME280;35061;47.664;9.166;2023-04-05T07:36:50;101850.21;;;3.12;49.35
18755;BME280;35061;47.664;9.166;2023-04-05T07:39:18;101855.87;;;3.12;49.33
18755;BME280;35061;47.664;9.166;2023-04-05T07:41:48;101858.68;;;3.15;48.85
18755;BME280;35061;47.664;9.166;2023-04-05T07:44:16;101859.50;;;3.16;49.26
18755;BME280;35061;47.664;9.166;2023-04-05T07:46:44;101848.58;;;3.18;49.30
18755;BME280;35061;47.664;9.166;2023-04-05T07:49:14;101859.01;;;3.25;49.66
18755;BME280;35061;47.664;9.166;2023-04-05T07:51:42;101856.55;;;3.30;49.89
18755;BME280;35061;47.664;9.166;2023-04-05T07:54:10;101860.12;;;3.38;50.08
18755;BME280;35061;47.664;9.166;2023-04-05T07:56:38;101864.50;;;3.46;49.99
18755;BME280;35061;47.664;9.166;2023-04-05T07:59:07;101858.78;;;3.54;49.54
18755;BME280;35061;47.664;9.166;2023-04-05T08:01:36;101864.37;;;3.61;49.34
18755;BME280;35061;47.664;9.166;2023-04-05T08:04:04;101865.52;;;3.67;49.23
18755;BME280;35061;47.664;9.166;2023-04-05T08:06:32;101869.54;;;3.73;49.23
18755;BME280;35061;47.664;9.166;2023-04-05T08:09:01;101864.99;;;3.80;49.35
18755;BME280;35061;47.664;9.166;2023-04-05T08:11:32;101872.25;;;3.84;49.02
18755;BME280;35061;47.664;9.166;2023-04-05T08:14:00;101870.62;;;3.87;48.85
18755;BME280;35061;47.664;9.166;2023-04-05T08:16:28;101862.87;;;3.91;48.85
18755;BME280;35061;47.664;9.166;2023-04-05T08:18:57;101854.30;;;3.98;48.66
18755;BME280;35061;47.664;9.166;2023-04-05T08:21:24;101864.73;;;4.05;48.66
18755;BME280;35061;47.664;9.166;2023-04-05T08:23:53;101860.64;;;4.10;48.28
18755;BME280;35061;47.664;9.166;2023-04-05T08:26:21;101855.70;;;4.14;48.32
18755;BME280;35061;47.664;9.166;2023-04-05T08:28:49;101869.44;;;4.19;48.19
18755;BME280;35061;47.664;9.166;2023-04-05T08:31:17;101864.93;;;4.25;47.89
18755;BME280;35061;47.664;9.166;2023-04-05T08:33:45;101863.23;;;4.31;47.90
18755;BME280;35061;47.664;9.166;2023-04-05T08:36:13;101864.77;;;4.36;47.17
18755;BME280;35061;47.664;9.166;2023-04-05T08:38:41;101860.64;;;4.44;47.75
18755;BME280;35061;47.664;9.166;2023-04-05T08:41:22;101870.65;;;4.53;47.36
18755;BME280;35061;47.664;9.166;2023-04-05T08:44:01;101864.50;;;4.58;47.17
18755;BME280;35061;47.664;9.166;2023-04-05T08:46:33;101863.23;;;4.63;47.00
18755;BME280;35061;47.664;9.166;2023-04-05T08:49:05;101866.43;;;4.65;46.53
18755;BME280;35061;47.664;9.166;2023-04-05T08:51:38;101865.98;;;4.70;46.41
18755;BME280;35061;47.664;9.166;2023-04-05T08:54:06;101866.30;;;4.75;46.49
18755;BME280;35061;47.664;9.166;2023-04-05T08:56:35;101877.95;;;4.85;46.61
18755;BME280;35061;47.664;9.166;2023-04-05T08:59:08;101872.12;;;4.92;46.68
18755;BME280;35061;47.664;9.166;2023-04-05T09:01:42;101869.18;;;4.99;46.31
18755;BME280;35061;47.664;9.166;2023-04-05T09:04:21;101865.94;;;5.01;45.92
18755;BME280;35061;47.664;9.166;2023-04-05T09:06:51;101866.63;;;5.09;45.76
18755;BME280;35061;47.664;9.166;2023-04-05T09:09:19;101870.52;;;5.19;45.80
18755;BME280;35061;47.664;9.166;2023-04-05T09:11:48;101864.99;;;5.35;45.71
18755;BME280;35061;47.664;9.166;2023-04-05T09:14:18;101874.93;;;5.47;45.56
18755;BME280;35061;47.664;9.166;2023-04-05T09:16:47;101877.16;;;5.59;45.52
18755;BME280;35061;47.664;9.166;2023-04-05T09:19:15;101870.84;;;5.72;45.07
18755;BME280;35061;47.664;9.166;2023-04-05T09:21:59;101864.66;;;5.77;44.54
18755;BME280;35061;47.664;9.166;2023-04-05T09:27:13;101869.15;;;5.98;43.51
18755;BME280;35061;47.664;9.166;2023-04-05T09:29:43;101870.65;;;6.07;44.36
18755;BME280;35061;47.664;9.166;2023-04-05T09:32:11;101873.79;;;6.12;44.33
18755;BME280;35061;47.664;9.166;2023-04-05T09:34:41;101873.63;;;6.20;44.17
18755;BME280;35061;47.664;9.166;2023-04-05T09:37:16;101871.01;;;6.29;44.30
18755;BME280;35061;47.664;9.166;2023-04-05T09:39:45;101867.15;;;6.39;43.16
18755;BME280;35061;47.664;9.166;2023-04-05T09:42:18;101866.92;;;6.50;43.55
18755;BME280;35061;47.664;9.166;2023-04-05T09:44:59;101866.34;;;6.59;43.22
18755;BME280;35061;47.664;9.166;2023-04-05T09:47:30;101872.45;;;6.57;42.37
18755;BME280;35061;47.664;9.166;2023-04-05T09:50:00;101875.49;;;6.67;43.00
18755;BME280;35061;47.664;9.166;2023-04-05T09:52:29;101878.20;;;6.74;42.81
18755;BME280;35061;47.664;9.166;2023-04-05T09:55:03;101870.35;;;6.78;41.16
18755;BME280;35061;47.664;9.166;2023-04-05T09:57:38;101875.49;;;6.87;42.15
18755;BME280;35061;47.664;9.166;2023-04-05T10:00:16;101882.59;;;6.95;41.92
18755;BME280;35061;47.664;9.166;2023-04-05T10:02:46;101871.50;;;7.01;42.46
18755;BME280;35061;47.664;9.166;2023-04-05T10:05:14;101873.37;;;7.08;42.64
18755;BME280;35061;47.664;9.166;2023-04-05T10:07:42;101874.34;;;7.18;42.52
18755;BME280;35061;47.664;9.166;2023-04-05T10:10:11;101872.32;;;7.18;41.35
18755;BME280;35061;47.664;9.166;2023-04-05T10:12:39;101868.59;;;7.21;41.39
18755;BME280;35061;47.664;9.166;2023-04-05T10:15:09;101873.66;;;7.30;41.67
18755;BME280;35061;47.664;9.166;2023-04-05T10:18:02;101863.69;;;7.38;41.56
18755;BME280;35061;47.664;9.166;2023-04-05T10:20:32;101866.01;;;7.44;40.47
18755;BME280;35061;47.664;9.166;2023-04-05T10:23:08;101859.34;;;7.50;40.98
18755;BME280;35061;47.664;9.166;2023-04-05T10:28:36;101869.54;;;7.64;40.63
18755;BME280;35061;47.664;9.166;2023-04-05T10:31:50;101857.60;;;7.70;40.29
18755;BME280;35061;47.664;9.166;2023-04-05T10:34:34;101861.85;;;7.78;40.37
18755;BME280;35061;47.664;9.166;2023-04-05T10:37:07;101856.49;;;7.80;40.47
18755;BME280;35061;47.664;9.166;2023-04-05T10:39:44;101848.64;;;7.84;40.64
18755;BME280;35061;47.664;9.166;2023-04-05T10:42:21;101854.73;;;7.86;40.16
18755;BME280;35061;47.664;9.166;2023-04-05T10:44:57;101852.30;;;7.85;39.94
18755;BME280;35061;47.664;9.166;2023-04-05T10:47:27;101861.13;;;7.90;39.95
18755;BME280;35061;47.664;9.166;2023-04-05T10:50:03;101861.13;;;7.90;40.12
18755;BME280;35061;47.664;9.166;2023-04-05T10:52:36;101860.77;;;7.88;39.94
18755;BME280;35061;47.664;9.166;2023-04-05T10:55:04;101854.34;;;7.84;39.93
18755;BME280;35061;47.664;9.166;2023-04-05T10:57:33;101856.33;;;7.87;39.50
18755;BME280;35061;47.664;9.166;2023-04-05T11:00:02;101857.44;;;7.90;39.84
18755;BME280;35061;47.664;9.166;2023-04-05T11:02:30;101856.59;;;7.93;39.89
18755;BME280;35061;47.664;9.166;2023-04-05T11:05:03;101856.72;;;8.02;39.96
18755;BME280;35061;47.664;9.166;2023-04-05T11:07:44;101851.81;;;8.03;39.61
18755;BME280;35061;47.664;9.166;2023-04-05T11:10:17;101850.12;;;8.05;38.96
18755;BME280;35061;47.664;9.166;2023-04-05T11:18:10;101844.72;;;8.24;39.04
18755;BME280;35061;47.664;9.166;2023-04-05T11:20:49;101841.84;;;8.24;38.54
18755;BME280;35061;47.664;9.166;2023-04-05T11:23:23;101832.81;;;8.26;38.71
18755;BME280;35061;47.664;9.166;2023-04-05T11:26:04;101830.30;;;8.28;38.58
18755;BME280;35061;47.664;9.166;2023-04-05T11:28:36;101829.52;;;8.27;38.74
18755;BME280;35061;47.664;9.166;2023-04-05T11:31:16;101826.99;;;8.29;38.69
18755;BME280;35061;47.664;9.166;2023-04-05T11:36:35;101819.02;;;8.37;38.57
18755;BME280;35061;47.664;9.166;2023-04-05T11:41:46;101814.70;;;8.45;38.06
18755;BME280;35061;47.664;9.166;2023-04-05T11:44:14;101822.48;;;8.45;37.81
18755;BME280;35061;47.664;9.166;2023-04-05T11:46:45;101816.07;;;8.41;36.98
18755;BME280;35061;47.664;9.166;2023-04-05T11:49:13;101825.46;;;8.41;37.13
18755;BME280;35061;47.664;9.166;2023-04-05T11:51:42;101808.42;;;8.37;36.87
18755;BME280;35061;47.664;9.166;2023-04-05T11:54:10;101818.69;;;8.35;35.87
18755;BME280;35061;47.664;9.166;2023-04-05T11:56:38;101804.07;;;8.33;36.66
18755;BME280;35061;47.664;9.166;2023-04-05T11:59:06;101799.30;;;8.30;35.30
18755;BME280;35061;47.664;9.166;2023-04-05T12:01:34;101799.16;;;8.33;35.80
18755;BME280;35061;47.664;9.166;2023-04-05T12:04:06;101805.58;;;8.37;36.24
18755;BME280;35061;47.664;9.166;2023-04-05T12:06:34;101804.20;;;8.42;36.40
18755;BME280;35061;47.664;9.166;2023-04-05T12:09:05;101799.30;;;8.43;36.10
18755;BME280;35061;47.664;9.166;2023-04-05T12:11:34;101792.46;;;8.40;35.89
18755;BME280;35061;47.664;9.166;2023-04-05T12:14:02;101790.60;;;8.46;36.01
18755;BME280;35061;47.664;9.166;2023-04-05T12:16:30;101786.52;;;8.47;35.69
18755;BME280;35061;47.664;9.166;2023-04-05T12:18:59;101786.31;;;8.55;35.84
18755;BME280;35061;47.664;9.166;2023-04-05T12:21:27;101782.78;;;8.63;36.17
18755;BME280;35061;47.664;9.166;2023-04-05T12:23:55;101790.30;;;8.70;36.01
18755;BME280;35061;47.664;9.166;2023-04-05T12:26:24;101782.46;;;8.74;35.89
18755;BME280;35061;47.664;9.166;2023-04-05T12:28:57;101776.64;;;8.78;35.96
18755;BME280;35061;47.664;9.166;2023-04-05T12:31:42;101775.36;;;8.79;35.56
18755;BME280;35061;47.664;9.166;2023-04-05T12:34:13;101774.45;;;8.82;35.73
18755;BME280;35061;47.664;9.166;2023-04-05T12:36:44;101774.22;;;8.89;35.69
18755;BME280;35061;47.664;9.166;2023-04-05T12:39:14;101771.47;;;8.86;35.36
18755;BME280;35061;47.664;9.166;2023-04-05T12:41:43;101771.80;;;8.88;35.62
18755;BME280;35061;47.664;9.166;2023-04-05T12:44:14;101768.82;;;8.91;35.60
18755;BME280;35061;47.664;9.166;2023-04-05T12:46:44;101766.86;;;9.01;35.96
18755;BME280;35061;47.664;9.166;2023-04-05T12:49:14;101772.02;;;9.06;35.71
18755;BME280;35061;47.664;9.166;2023-04-05T12:51:44;101773.17;;;9.09;35.49
18755;BME280;35061;47.664;9.166;2023-04-05T12:54:22;101772.02;;;9.06;35.08
18755;BME280;35061;47.664;9.166;2023-04-05T12:56:52;101760.58;;;9.06;35.13
18755;BME280;35061;47.664;9.166;2023-04-05T12:59:22;101757.73;;;9.06;34.97
18755;BME280;35061;47.664;9.166;2023-04-05T13:01:50;101750.09;;;9.03;35.13
18755;BME280;35061;47.664;9.166;2023-04-05T13:04:18;101747.89;;;9.07;35.22
18755;BME280;35061;47.664;9.166;2023-04-05T13:06:46;101753.48;;;9.11;35.09
18755;BME280;35061;47.664;9.166;2023-04-05T13:09:14;101745.70;;;9.12;34.98
18755;BME280;35061;47.664;9.166;2023-04-05T13:11:42;101742.73;;;9.15;34.41
18755;BME280;35061;47.664;9.166;2023-04-05T13:14:10;101745.24;;;9.13;34.61
18755;BME280;35061;47.664;9.166;2023-04-05T13:16:38;101732.36;;;9.08;33.28
18755;BME280;35061;47.664;9.166;2023-04-05T13:19:06;101731.80;;;9.01;34.17
18755;BME280;35061;47.664;9.166;2023-04-05T13:21:34;101730.98;;;9.00;34.00
18755;BME280;35061;47.664;9.166;2023-04-05T13:24:02;101729.98;;;8.94;33.92
18755;BME280;35061;47.664;9.166;2023-04-05T13:26:30;101735.01;;;8.90;33.70
18755;BME280;35061;47.664;9.166;2023-04-05T13:28:58;101725.33;;;8.87;33.90
18755;BME280;35061;47.664;9.166;2023-04-05T13:31:26;101723.83;;;8.83;33.84
18755;BME280;35061;47.664;9.166;2023-04-05T13:33:54;101719.70;;;8.84;33.97
18755;BME280;35061;47.664;9.166;2023-04-05T13:36:22;101720.06;;;8.86;34.17
18755;BME280;35061;47.664;9.166;2023-04-05T13:38:50;101721.63;;;8.87;34.32
18755;BME280;35061;47.664;9.166;2023-04-05T13:41:18;101711.04;;;8.87;34.34
18755;BME280;35061;47.664;9.166;2023-04-05T13:43:46;101711.04;;;8.87;34.48
18755;BME280;35061;47.664;9.166;2023-04-05T13:46:14;101712.64;;;8.88;34.25